N505ZG KAVX-KSAN
Flight info
| Callsign | N505ZG |
|---|---|
| Flight time | 0h 33m |
| Altitude | 9000 |
| Route | SXC V208 HUBRD CARDI MZB |
| Aircraft | C208/L-SDFGR/C |
Departure
| Time | 2026-05-04 20:28 |
|---|---|
| Airport | Catalina Airport (KAVX) |
Arrival
| Time | 2026-05-04 21:01 |
|---|---|
| Airport | San Diego International Airport (KSAN) |
| Time | Latitude | Longitude | Altitude | Speed | Heading |
|---|---|---|---|---|---|
| 2026-05-04 20:12 | 33.40332 | -118.41546 | 1597 ft | 0 kts | 56° |
| 2026-05-04 20:23 | 33.40357 | -118.41532 | 1597 ft | 5 kts | 7° |
| 2026-05-04 20:24 | 33.40398 | -118.41503 | 1597 ft | 5 kts | 22° |
| 2026-05-04 20:24 | 33.40435 | -118.41502 | 1596 ft | 10 kts | 351° |
| 2026-05-04 20:24 | 33.40529 | -118.41459 | 1587 ft | 17 kts | 54° |
| 2026-05-04 20:24 | 33.40594 | -118.41348 | 1577 ft | 16 kts | 56° |
| 2026-05-04 20:25 | 33.40655 | -118.41246 | 1568 ft | 15 kts | 56° |
| 2026-05-04 20:25 | 33.40702 | -118.41166 | 1561 ft | 1 kts | 53° |
| 2026-05-04 20:25 | 33.40712 | -118.41150 | 1560 ft | 2 kts | 51° |
| 2026-05-04 20:25 | 33.40717 | -118.41143 | 1560 ft | 0 kts | 51° |
| 2026-05-04 20:26 | 33.40740 | -118.41173 | 1560 ft | 10 kts | 258° |
| 2026-05-04 20:26 | 33.40732 | -118.41184 | 1560 ft | 0 kts | 235° |
| 2026-05-04 20:27 | 33.40727 | -118.41192 | 1561 ft | 11 kts | 236° |
| 2026-05-04 20:27 | 33.40585 | -118.41436 | 1584 ft | 58 kts | 235° |
| 2026-05-04 20:27 | 33.40274 | -118.41935 | 1661 ft | 88 kts | 235° |
| 2026-05-04 20:27 | 33.39845 | -118.42575 | 1881 ft | 107 kts | 234° |
| 2026-05-04 20:28 | 33.39382 | -118.43292 | 2249 ft | 109 kts | 233° |
| 2026-05-04 20:28 | 33.38777 | -118.43802 | 2646 ft | 110 kts | 194° |
| 2026-05-04 20:28 | 33.38025 | -118.43753 | 3051 ft | 106 kts | 170° |
| 2026-05-04 20:28 | 33.37483 | -118.43193 | 3455 ft | 103 kts | 123° |
| 2026-05-04 20:29 | 33.37305 | -118.42364 | 3711 ft | 113 kts | 95° |
| 2026-05-04 20:29 | 33.37179 | -118.41338 | 3833 ft | 133 kts | 101° |
| 2026-05-04 20:29 | 33.37033 | -118.40187 | 3976 ft | 145 kts | 98° |
| 2026-05-04 20:29 | 33.36893 | -118.38956 | 4114 ft | 154 kts | 98° |
| 2026-05-04 20:30 | 33.36745 | -118.37655 | 4242 ft | 160 kts | 98° |
| 2026-05-04 20:30 | 33.36590 | -118.36307 | 4368 ft | 165 kts | 98° |
| 2026-05-04 20:30 | 33.36439 | -118.34972 | 4553 ft | 164 kts | 98° |
| 2026-05-04 20:30 | 33.36285 | -118.33622 | 4737 ft | 163 kts | 98° |
| 2026-05-04 20:31 | 33.36130 | -118.32274 | 4927 ft | 165 kts | 98° |
| 2026-05-04 20:31 | 33.35970 | -118.30902 | 5101 ft | 168 kts | 98° |
| 2026-05-04 20:31 | 33.35805 | -118.29495 | 5286 ft | 173 kts | 98° |
| 2026-05-04 20:31 | 33.35642 | -118.28069 | 5461 ft | 173 kts | 98° |
| 2026-05-04 20:32 | 33.35480 | -118.26655 | 5633 ft | 170 kts | 98° |
| 2026-05-04 20:32 | 33.35320 | -118.25266 | 5803 ft | 167 kts | 98° |
| 2026-05-04 20:32 | 33.35155 | -118.23909 | 5981 ft | 164 kts | 101° |
| 2026-05-04 20:32 | 33.34963 | -118.22568 | 6150 ft | 164 kts | 98° |
| 2026-05-04 20:33 | 33.34799 | -118.21223 | 6329 ft | 163 kts | 98° |
| 2026-05-04 20:33 | 33.34627 | -118.19885 | 6502 ft | 162 kts | 99° |
| 2026-05-04 20:33 | 33.34452 | -118.18551 | 6671 ft | 162 kts | 99° |
| 2026-05-04 20:33 | 33.34336 | -118.17673 | 6781 ft | 161 kts | 99° |
| 2026-05-04 20:34 | 33.34105 | -118.15915 | 7004 ft | 161 kts | 99° |
| 2026-05-04 20:34 | 33.33928 | -118.14584 | 7171 ft | 162 kts | 99° |
| 2026-05-04 20:34 | 33.33811 | -118.13700 | 7286 ft | 162 kts | 100° |
| 2026-05-04 20:34 | 33.33635 | -118.12370 | 7459 ft | 162 kts | 100° |
| 2026-05-04 20:35 | 33.33457 | -118.11032 | 7637 ft | 164 kts | 99° |
| 2026-05-04 20:35 | 33.33276 | -118.09663 | 7812 ft | 167 kts | 100° |
| 2026-05-04 20:35 | 33.33093 | -118.08293 | 7991 ft | 170 kts | 99° |
| 2026-05-04 20:35 | 33.32906 | -118.06881 | 8180 ft | 173 kts | 100° |
| 2026-05-04 20:36 | 33.32716 | -118.05448 | 8357 ft | 175 kts | 101° |
| 2026-05-04 20:36 | 33.32523 | -118.04010 | 8536 ft | 174 kts | 101° |
| 2026-05-04 20:36 | 33.32334 | -118.02594 | 8735 ft | 171 kts | 101° |
| 2026-05-04 20:36 | 33.32149 | -118.01195 | 8931 ft | 169 kts | 101° |
| 2026-05-04 20:37 | 33.31960 | -117.99777 | 8971 ft | 177 kts | 101° |
| 2026-05-04 20:37 | 33.31758 | -117.98291 | 8978 ft | 184 kts | 101° |
| 2026-05-04 20:37 | 33.31555 | -117.96761 | 8988 ft | 188 kts | 101° |
| 2026-05-04 20:37 | 33.31347 | -117.95210 | 8983 ft | 190 kts | 101° |
| 2026-05-04 20:38 | 33.31140 | -117.93654 | 8982 ft | 191 kts | 101° |
| 2026-05-04 20:38 | 33.30929 | -117.92071 | 8986 ft | 193 kts | 101° |
| 2026-05-04 20:38 | 33.30714 | -117.90482 | 8986 ft | 194 kts | 101° |
| 2026-05-04 20:38 | 33.30500 | -117.88890 | 8984 ft | 194 kts | 101° |
| 2026-05-04 20:39 | 33.30290 | -117.87318 | 8984 ft | 193 kts | 101° |
| 2026-05-04 20:39 | 33.30075 | -117.85729 | 8984 ft | 193 kts | 101° |
| 2026-05-04 20:39 | 33.29862 | -117.84141 | 8982 ft | 193 kts | 101° |
| 2026-05-04 20:39 | 33.29647 | -117.82550 | 8987 ft | 193 kts | 101° |
| 2026-05-04 20:40 | 33.29432 | -117.80959 | 8986 ft | 194 kts | 101° |
| 2026-05-04 20:40 | 33.29220 | -117.79393 | 8986 ft | 194 kts | 101° |
| 2026-05-04 20:40 | 33.29004 | -117.77791 | 8986 ft | 194 kts | 101° |
| 2026-05-04 20:40 | 33.28787 | -117.76194 | 8981 ft | 194 kts | 101° |
| 2026-05-04 20:41 | 33.28573 | -117.74619 | 8982 ft | 194 kts | 101° |
| 2026-05-04 20:41 | 33.28338 | -117.73031 | 8981 ft | 194 kts | 102° |
| 2026-05-04 20:41 | 33.28092 | -117.71428 | 8981 ft | 195 kts | 102° |
| 2026-05-04 20:41 | 33.27851 | -117.69819 | 8981 ft | 196 kts | 102° |
| 2026-05-04 20:42 | 33.27610 | -117.68237 | 8980 ft | 195 kts | 102° |
| 2026-05-04 20:42 | 33.27369 | -117.66639 | 8981 ft | 195 kts | 102° |
| 2026-05-04 20:42 | 33.27128 | -117.65042 | 8980 ft | 194 kts | 102° |
| 2026-05-04 20:42 | 33.26889 | -117.63453 | 8977 ft | 194 kts | 102° |
| 2026-05-04 20:43 | 33.26649 | -117.61870 | 8976 ft | 194 kts | 102° |
| 2026-05-04 20:43 | 33.26387 | -117.60302 | 8968 ft | 193 kts | 110° |
| 2026-05-04 20:43 | 33.25629 | -117.59046 | 8826 ft | 182 kts | 151° |
| 2026-05-04 20:43 | 33.24522 | -117.58443 | 8697 ft | 174 kts | 160° |
| 2026-05-04 20:44 | 33.23498 | -117.57686 | 8570 ft | 175 kts | 149° |
| 2026-05-04 20:44 | 33.22520 | -117.56816 | 8438 ft | 173 kts | 148° |
| 2026-05-04 20:44 | 33.21562 | -117.55972 | 8306 ft | 172 kts | 149° |
| 2026-05-04 20:44 | 33.20596 | -117.55128 | 8182 ft | 171 kts | 149° |
| 2026-05-04 20:45 | 33.19632 | -117.54288 | 8058 ft | 170 kts | 149° |
| 2026-05-04 20:45 | 33.18687 | -117.53472 | 7921 ft | 169 kts | 152° |
| 2026-05-04 20:45 | 33.17638 | -117.52863 | 7789 ft | 169 kts | 151° |
| 2026-05-04 20:45 | 33.16725 | -117.51953 | 7662 ft | 170 kts | 142° |
| 2026-05-04 20:46 | 33.15815 | -117.51065 | 7535 ft | 167 kts | 147° |
| 2026-05-04 20:46 | 33.14893 | -117.50251 | 7413 ft | 168 kts | 148° |
| 2026-05-04 20:46 | 33.13940 | -117.49420 | 7294 ft | 170 kts | 148° |
| 2026-05-04 20:46 | 33.12985 | -117.48585 | 7174 ft | 171 kts | 147° |
| 2026-05-04 20:47 | 33.12026 | -117.47748 | 7054 ft | 170 kts | 147° |
| 2026-05-04 20:47 | 33.11068 | -117.46911 | 6929 ft | 170 kts | 147° |
| 2026-05-04 20:47 | 33.10123 | -117.46085 | 6807 ft | 171 kts | 147° |
| 2026-05-04 20:47 | 33.09168 | -117.45250 | 6685 ft | 170 kts | 147° |
| 2026-05-04 20:48 | 33.08211 | -117.44413 | 6558 ft | 169 kts | 146° |
| 2026-05-04 20:48 | 33.07260 | -117.43585 | 6440 ft | 169 kts | 147° |
| 2026-05-04 20:48 | 33.06312 | -117.42757 | 6304 ft | 169 kts | 146° |
| 2026-05-04 20:48 | 33.05365 | -117.41932 | 6178 ft | 168 kts | 146° |
| 2026-05-04 20:49 | 33.04422 | -117.41108 | 6045 ft | 168 kts | 146° |
| 2026-05-04 20:49 | 33.03488 | -117.40293 | 5924 ft | 168 kts | 146° |
| 2026-05-04 20:49 | 33.02542 | -117.39469 | 5792 ft | 167 kts | 146° |
| 2026-05-04 20:49 | 33.01602 | -117.38650 | 5665 ft | 167 kts | 146° |
| 2026-05-04 20:50 | 33.00664 | -117.37833 | 5540 ft | 167 kts | 146° |
| 2026-05-04 20:50 | 32.99737 | -117.37026 | 5409 ft | 167 kts | 146° |
| 2026-05-04 20:50 | 32.98799 | -117.36209 | 5288 ft | 167 kts | 146° |
| 2026-05-04 20:50 | 32.97861 | -117.35391 | 5163 ft | 167 kts | 146° |
| 2026-05-04 20:51 | 32.96925 | -117.34576 | 5037 ft | 166 kts | 146° |
| 2026-05-04 20:51 | 32.95996 | -117.33771 | 4978 ft | 163 kts | 146° |
| 2026-05-04 20:51 | 32.95091 | -117.32983 | 4977 ft | 159 kts | 146° |
| 2026-05-04 20:51 | 32.94206 | -117.32212 | 4970 ft | 157 kts | 146° |
| 2026-05-04 20:52 | 32.93331 | -117.31450 | 4995 ft | 154 kts | 145° |
| 2026-05-04 20:52 | 32.92464 | -117.30698 | 4989 ft | 154 kts | 146° |
| 2026-05-04 20:52 | 32.91603 | -117.29949 | 4988 ft | 153 kts | 146° |
| 2026-05-04 20:52 | 32.90748 | -117.29202 | 4992 ft | 152 kts | 146° |
| 2026-05-04 20:53 | 32.89891 | -117.28459 | 4993 ft | 152 kts | 147° |
| 2026-05-04 20:53 | 32.89027 | -117.27716 | 4995 ft | 154 kts | 146° |
| 2026-05-04 20:53 | 32.88161 | -117.26959 | 4995 ft | 154 kts | 146° |
| 2026-05-04 20:53 | 32.87293 | -117.26206 | 4992 ft | 155 kts | 146° |
| 2026-05-04 20:54 | 32.86415 | -117.25445 | 4992 ft | 157 kts | 147° |
| 2026-05-04 20:54 | 32.85535 | -117.24684 | 5000 ft | 157 kts | 145° |
| 2026-05-04 20:54 | 32.84668 | -117.23918 | 4923 ft | 153 kts | 147° |
| 2026-05-04 20:54 | 32.83811 | -117.23188 | 4693 ft | 151 kts | 147° |
| 2026-05-04 20:55 | 32.83096 | -117.22296 | 4436 ft | 154 kts | 114° |
| 2026-05-04 20:55 | 32.82795 | -117.21100 | 4200 ft | 148 kts | 105° |
| 2026-05-04 20:55 | 32.82520 | -117.19922 | 3962 ft | 147 kts | 106° |
| 2026-05-04 20:55 | 32.82190 | -117.18801 | 3734 ft | 144 kts | 118° |
| 2026-05-04 20:56 | 32.81644 | -117.17836 | 3503 ft | 141 kts | 136° |
| 2026-05-04 20:56 | 32.80998 | -117.16949 | 3278 ft | 140 kts | 134° |
| 2026-05-04 20:56 | 32.80373 | -117.16059 | 3038 ft | 142 kts | 133° |
| 2026-05-04 20:56 | 32.79727 | -117.15143 | 2788 ft | 143 kts | 135° |
| 2026-05-04 20:57 | 32.79057 | -117.14309 | 2616 ft | 139 kts | 140° |
| 2026-05-04 20:57 | 32.78310 | -117.13593 | 2392 ft | 136 kts | 156° |
| 2026-05-04 20:57 | 32.77449 | -117.13155 | 2206 ft | 131 kts | 166° |
| 2026-05-04 20:57 | 32.76588 | -117.12911 | 1937 ft | 124 kts | 180° |
| 2026-05-04 20:58 | 32.75749 | -117.12803 | 1745 ft | 119 kts | 182° |
| 2026-05-04 20:58 | 32.74971 | -117.12765 | 1608 ft | 108 kts | 185° |
| 2026-05-04 20:58 | 32.74229 | -117.12734 | 1407 ft | 106 kts | 183° |
| 2026-05-04 20:58 | 32.73540 | -117.12768 | 1189 ft | 96 kts | 213° |
| 2026-05-04 20:59 | 32.73018 | -117.13224 | 1017 ft | 91 kts | 222° |
| 2026-05-04 20:59 | 32.72566 | -117.13785 | 936 ft | 100 kts | 240° |
| 2026-05-04 20:59 | 32.72422 | -117.14619 | 819 ft | 104 kts | 272° |
| 2026-05-04 20:59 | 32.72487 | -117.15352 | 702 ft | 81 kts | 280° |
| 2026-05-04 21:00 | 32.72623 | -117.15948 | 555 ft | 73 kts | 279° |
| 2026-05-04 21:00 | 32.72764 | -117.16537 | 448 ft | 75 kts | 289° |
| 2026-05-04 21:00 | 32.72916 | -117.17154 | 269 ft | 79 kts | 286° |
| 2026-05-04 21:00 | 32.73064 | -117.17770 | 87 ft | 72 kts | 281° |
| 2026-05-04 21:01 | 32.73190 | -117.18281 | 21 ft | 57 kts | 284° |
| 2026-05-04 21:01 | 32.73266 | -117.18453 | 20 ft | 11 kts | 37° |
| 2026-05-04 21:01 | 32.73304 | -117.18425 | 20 ft | 0 kts | 15° |
| 2026-05-04 21:02 | 32.73305 | -117.18425 | 20 ft | 0 kts | 15° |
| 2026-05-04 21:02 | 32.73327 | -117.18388 | 20 ft | 15 kts | 81° |
| 2026-05-04 21:03 | 32.73291 | -117.18222 | 19 ft | 25 kts | 105° |
| 2026-05-04 21:03 | 32.73248 | -117.18050 | 19 ft | 17 kts | 105° |
| 2026-05-04 21:03 | 32.73281 | -117.17973 | 20 ft | 12 kts | 15° |
| 2026-05-04 21:03 | 32.73360 | -117.17945 | 21 ft | 14 kts | 19° |
| 2026-05-04 21:04 | 32.73379 | -117.17874 | 19 ft | 7 kts | 131° |
| 2026-05-04 21:04 | 32.73359 | -117.17848 | 19 ft | 0 kts | 136° |
| 2026-05-04 21:13 | 32.73326 | -117.17839 | 20 ft | 5 kts | 151° |
| 2026-05-04 21:13 | 32.73333 | -117.17844 | 20 ft | 5 kts | 283° |
| 2026-05-04 21:14 | 32.73338 | -117.17863 | 20 ft | 0 kts | 285° |